»·PEaware :: N106MR KSNA-KSBA

N106MR :: KSNA-KSBA

FLIGHT INFORMATION

Flight Status: Arrived
Operator: Privately registered:
United States
More flights under this callsign
Pilot: Michael R. (16974)
Aircraft: MITSUBISHI MU-2 MARQUISE
(MU2)
More flights by this aircraft type
Origin: KSNA John Wayne-Orange Co
United States
Destination: KSBA Santa Barbara Mun
United States
More flights between these airports :: More routes between these airports
Route: +SXC V208 VTU VTU282 KWANG
File this flight plan on PilotEdge
Remarks: TEC ROUTE
Altitude:
(Current/Filed)
8,000ft
Speed:
(Current/Filed)
260kts
Departed: 29-Dec-17 08:09 PM
Arrived: 29-Dec-17 08:47 PM
Distance/Time
Traveled:
108nm/0:37
Distance/Time
To Go:
Arrived

Flight Plot

Page will automatically refresh every two minutes.


Map Options




Map Legend


Flown Route
Filed Route
Departure Airport
Arrival Airport
Navaid (VOR, NDB)
Fix

Horizontal Profiles

Position Reports

Time Latitude Longitude Heading Altitude Ground
Speed
29-Dec-17 19:57 33.674247 -117.871926 118 60ft 0kts
29-Dec-17 19:58 33.674247 -117.871926 118 60ft 0kts
29-Dec-17 19:59 33.674247 -117.871926 118 60ft 0kts
29-Dec-17 20:00 33.674247 -117.871926 118 60ft 0kts
29-Dec-17 20:01 33.674247 -117.871926 118 60ft 0kts
29-Dec-17 20:02 33.674247 -117.871926 118 60ft 0kts
29-Dec-17 20:03 33.674247 -117.871926 118 60ft 0kts
29-Dec-17 20:04 33.674247 -117.871926 118 60ft 0kts
29-Dec-17 20:05 33.674247 -117.871926 118 60ft 0kts
29-Dec-17 20:06 33.674247 -117.871926 118 60ft 0kts
29-Dec-17 20:07 33.674247 -117.871926 118 60ft 0kts
29-Dec-17 20:08 33.674247 -117.871926 118 60ft 0kts
29-Dec-17 20:09 33.674132 -117.871634 104 60ft 7kts
29-Dec-17 20:10 33.678129 -117.868796 27 60ft 22kts
29-Dec-17 20:11 33.681240 -117.866411 116 60ft 0kts
29-Dec-17 20:12 33.681240 -117.866411 116 60ft 0kts
29-Dec-17 20:13 33.681239 -117.866410 116 60ft 0kts
29-Dec-17 20:14 33.680972 -117.865863 132 60ft 8kts
29-Dec-17 20:15 33.673668 -117.870105 208 74ft 128kts
29-Dec-17 20:16 33.631976 -117.888924 182 1520ft 194kts
29-Dec-17 20:17 33.575598 -117.890888 181 3458ft 209kts
29-Dec-17 20:18 33.531895 -117.927126 236 5457ft 207kts
29-Dec-17 20:19 33.497589 -117.980994 231 7275ft 204kts
29-Dec-17 20:20 33.460770 -118.036766 231 8025ft 233kts
29-Dec-17 20:21 33.419624 -118.098168 231 8074ft 258kts
29-Dec-17 20:22 33.374593 -118.164668 231 8072ft 268kts
29-Dec-17 20:23 33.359179 -118.247326 277 8073ft 269kts
29-Dec-17 20:24 33.367560 -118.335878 276 8038ft 269kts
29-Dec-17 20:25 33.379647 -118.423369 304 8009ft 267kts
29-Dec-17 20:26 33.426089 -118.492386 310 8006ft 267kts
29-Dec-17 20:27 33.473925 -118.560612 310 8006ft 267kts
29-Dec-17 20:28 33.521571 -118.628543 310 8006ft 267kts
29-Dec-17 20:29 33.568717 -118.696034 309 8007ft 267kts
29-Dec-17 20:30 33.615635 -118.763268 309 8007ft 267kts
29-Dec-17 20:31 33.663251 -118.831647 309 7969ft 269kts
29-Dec-17 20:32 33.711166 -118.900527 310 7961ft 268kts
29-Dec-17 20:33 33.758798 -118.969150 310 8003ft 266kts
29-Dec-17 20:34 33.817114 -119.017299 352 7981ft 268kts
29-Dec-17 20:35 33.891353 -119.025979 354 8011ft 269kts
29-Dec-17 20:36 33.966102 -119.033812 354 8044ft 270kts
29-Dec-17 20:37 34.041174 -119.041724 354 8081ft 271kts
29-Dec-17 20:38 34.112433 -119.055781 321 7848ft 279kts
29-Dec-17 20:39 34.151072 -119.139825 297 6676ft 276kts
29-Dec-17 20:40 34.179983 -119.213115 295 5986ft 209kts
29-Dec-17 20:41 34.202573 -119.270219 295 5993ft 182kts
29-Dec-17 20:42 34.224299 -119.325321 295 5994ft 180kts
29-Dec-17 20:43 34.245767 -119.379850 295 5994ft 179kts
29-Dec-17 20:44 34.267210 -119.434360 295 6001ft 180kts
29-Dec-17 20:45 34.290440 -119.495055 294 4890ft 208kts
29-Dec-17 20:46 34.313800 -119.556939 295 3980ft 187kts
29-Dec-17 20:47 34.333641 -119.611159 294 3979ft 172kts
29-Dec-17 20:48 34.356085 -119.661416 314 3947ft 174kts
29-Dec-17 20:49 34.387504 -119.702483 310 3622ft 148kts
29-Dec-17 20:50 34.412493 -119.738288 314 2806ft 137kts
29-Dec-17 20:51 34.429226 -119.781579 271 1419ft 156kts
29-Dec-17 20:52 34.427967 -119.833025 270 61ft 143kts
29-Dec-17 20:53 34.427063 -119.846378 158 13ft 0kts
29-Dec-17 20:54 34.427063 -119.846378 158 13ft 0kts
29-Dec-17 20:55 34.426566 -119.845507 87 13ft 17kts
29-Dec-17 20:56 34.426706 -119.838978 87 13ft 8kts
29-Dec-17 20:57 34.422965 -119.836909 131 12ft 14kts
29-Dec-17 20:58 34.423215 -119.836142 263 11ft 0kts
29-Dec-17 20:59 34.423216 -119.836140 263 11ft 0kts
29-Dec-17 21:00 34.423216 -119.836140 263 11ft 0kts
29-Dec-17 21:01 34.423216 -119.836140 263 11ft 0kts
29-Dec-17 21:02 34.423216 -119.836140 263 11ft 0kts
29-Dec-17 21:03 34.423216 -119.836140 263 11ft 0kts
29-Dec-17 21:04 34.423216 -119.836140 263 11ft 0kts
29-Dec-17 21:05 34.423216 -119.836140 263 11ft 0kts
29-Dec-17 21:06 34.423216 -119.836140 263 11ft 0kts
29-Dec-17 21:07 34.423216 -119.836140 263 11ft 0kts

Navigation Log

Ident Type
1. KSNA Airport
2. SXC Navaid
3. WEEZL Fix
4. VTU Navaid
5. KWANG Fix
6. KSBA Airport